sensor_id;sensor_type;location;lat;lon;timestamp;P1;durP1;ratioP1;P2;durP2;ratioP2
34064;SDS011;20339;49.754;20.158;2024-02-26T00:02:06;8.90;;;5.60;;
34064;SDS011;20339;49.754;20.158;2024-02-26T00:04:38;9.30;;;5.20;;
34064;SDS011;20339;49.754;20.158;2024-02-26T00:07:09;7.20;;;5.00;;
34064;SDS011;20339;49.754;20.158;2024-02-26T00:09:43;10.10;;;6.40;;
34064;SDS011;20339;49.754;20.158;2024-02-26T00:12:14;10.80;;;5.90;;
34064;SDS011;20339;49.754;20.158;2024-02-26T00:14:45;10.40;;;5.70;;
34064;SDS011;20339;49.754;20.158;2024-02-26T00:17:17;8.60;;;4.90;;
34064;SDS011;20339;49.754;20.158;2024-02-26T00:19:48;10.70;;;6.80;;
34064;SDS011;20339;49.754;20.158;2024-02-26T00:22:22;7.10;;;4.60;;
34064;SDS011;20339;49.754;20.158;2024-02-26T00:24:53;8.20;;;5.10;;
34064;SDS011;20339;49.754;20.158;2024-02-26T00:27:25;8.50;;;5.20;;
34064;SDS011;20339;49.754;20.158;2024-02-26T00:29:56;7.40;;;4.30;;
34064;SDS011;20339;49.754;20.158;2024-02-26T00:32:28;7.00;;;4.30;;
34064;SDS011;20339;49.754;20.158;2024-02-26T00:35:02;10.90;;;5.50;;
34064;SDS011;20339;49.754;20.158;2024-02-26T00:37:33;8.50;;;4.40;;
34064;SDS011;20339;49.754;20.158;2024-02-26T00:40:05;10.80;;;6.10;;
34064;SDS011;20339;49.754;20.158;2024-02-26T00:42:49;10.60;;;6.00;;
34064;SDS011;20339;49.754;20.158;2024-02-26T00:45:20;9.30;;;5.90;;
34064;SDS011;20339;49.754;20.158;2024-02-26T00:47:54;10.10;;;5.50;;
34064;SDS011;20339;49.754;20.158;2024-02-26T00:50:32;9.10;;;6.10;;
34064;SDS011;20339;49.754;20.158;2024-02-26T00:53:04;10.70;;;5.60;;
34064;SDS011;20339;49.754;20.158;2024-02-26T00:55:36;12.70;;;6.90;;
34064;SDS011;20339;49.754;20.158;2024-02-26T00:58:10;10.10;;;6.20;;
34064;SDS011;20339;49.754;20.158;2024-02-26T01:00:41;10.40;;;6.10;;
34064;SDS011;20339;49.754;20.158;2024-02-26T01:03:15;6.20;;;4.20;;
34064;SDS011;20339;49.754;20.158;2024-02-26T01:05:46;7.20;;;4.30;;
34064;SDS011;20339;49.754;20.158;2024-02-26T01:08:17;8.20;;;4.80;;
34064;SDS011;20339;49.754;20.158;2024-02-26T01:10:49;7.40;;;4.80;;
34064;SDS011;20339;49.754;20.158;2024-02-26T01:13:22;7.30;;;4.90;;
34064;SDS011;20339;49.754;20.158;2024-02-26T01:16:03;8.40;;;5.10;;
34064;SDS011;20339;49.754;20.158;2024-02-26T01:18:36;9.90;;;5.60;;
34064;SDS011;20339;49.754;20.158;2024-02-26T01:21:09;10.90;;;6.80;;
34064;SDS011;20339;49.754;20.158;2024-02-26T01:23:45;9.90;;;5.70;;
34064;SDS011;20339;49.754;20.158;2024-02-26T01:26:21;9.00;;;5.20;;
34064;SDS011;20339;49.754;20.158;2024-02-26T01:28:55;8.40;;;4.70;;
34064;SDS011;20339;49.754;20.158;2024-02-26T01:31:31;9.60;;;5.80;;
34064;SDS011;20339;49.754;20.158;2024-02-26T01:34:04;8.70;;;5.70;;
34064;SDS011;20339;49.754;20.158;2024-02-26T01:36:37;9.90;;;6.30;;
34064;SDS011;20339;49.754;20.158;2024-02-26T01:39:09;10.90;;;6.60;;
34064;SDS011;20339;49.754;20.158;2024-02-26T01:41:42;8.50;;;5.10;;
34064;SDS011;20339;49.754;20.158;2024-02-26T01:44:17;7.90;;;4.70;;
34064;SDS011;20339;49.754;20.158;2024-02-26T01:46:51;7.90;;;5.50;;
34064;SDS011;20339;49.754;20.158;2024-02-26T01:49:26;8.80;;;5.60;;
34064;SDS011;20339;49.754;20.158;2024-02-26T01:52:00;8.40;;;5.20;;
34064;SDS011;20339;49.754;20.158;2024-02-26T01:54:37;9.10;;;5.20;;
34064;SDS011;20339;49.754;20.158;2024-02-26T01:57:12;6.50;;;4.70;;
34064;SDS011;20339;49.754;20.158;2024-02-26T01:59:48;6.20;;;3.60;;
34064;SDS011;20339;49.754;20.158;2024-02-26T02:02:19;6.10;;;4.40;;
34064;SDS011;20339;49.754;20.158;2024-02-26T02:04:52;7.30;;;4.70;;
34064;SDS011;20339;49.754;20.158;2024-02-26T02:07:24;8.00;;;4.20;;
34064;SDS011;20339;49.754;20.158;2024-02-26T02:09:57;7.10;;;4.50;;
34064;SDS011;20339;49.754;20.158;2024-02-26T02:12:32;8.60;;;5.40;;
34064;SDS011;20339;49.754;20.158;2024-02-26T02:15:08;7.30;;;4.20;;
34064;SDS011;20339;49.754;20.158;2024-02-26T02:17:44;5.20;;;3.40;;
34064;SDS011;20339;49.754;20.158;2024-02-26T02:22:57;7.30;;;3.90;;
34064;SDS011;20339;49.754;20.158;2024-02-26T02:25:28;5.00;;;3.50;;
34064;SDS011;20339;49.754;20.158;2024-02-26T02:27:59;8.80;;;5.20;;
34064;SDS011;20339;49.754;20.158;2024-02-26T02:30:34;9.80;;;5.90;;
34064;SDS011;20339;49.754;20.158;2024-02-26T02:33:07;11.60;;;6.10;;
34064;SDS011;20339;49.754;20.158;2024-02-26T02:35:40;11.30;;;6.40;;
34064;SDS011;20339;49.754;20.158;2024-02-26T02:38:15;7.50;;;4.80;;
34064;SDS011;20339;49.754;20.158;2024-02-26T02:40:54;5.80;;;3.80;;
34064;SDS011;20339;49.754;20.158;2024-02-26T02:43:26;5.00;;;3.80;;
34064;SDS011;20339;49.754;20.158;2024-02-26T02:46:03;5.10;;;3.30;;
34064;SDS011;20339;49.754;20.158;2024-02-26T02:48:41;6.50;;;4.50;;
34064;SDS011;20339;49.754;20.158;2024-02-26T02:51:14;8.50;;;5.60;;
34064;SDS011;20339;49.754;20.158;2024-02-26T02:53:45;8.10;;;5.10;;
34064;SDS011;20339;49.754;20.158;2024-02-26T02:56:21;6.20;;;3.80;;
34064;SDS011;20339;49.754;20.158;2024-02-26T02:58:57;7.40;;;4.90;;
34064;SDS011;20339;49.754;20.158;2024-02-26T03:01:31;7.70;;;5.00;;
34064;SDS011;20339;49.754;20.158;2024-02-26T03:04:04;10.20;;;5.10;;
34064;SDS011;20339;49.754;20.158;2024-02-26T03:06:38;7.80;;;4.80;;
34064;SDS011;20339;49.754;20.158;2024-02-26T03:09:10;7.90;;;5.30;;
34064;SDS011;20339;49.754;20.158;2024-02-26T03:11:41;8.80;;;6.00;;
34064;SDS011;20339;49.754;20.158;2024-02-26T03:14:12;10.40;;;6.70;;
34064;SDS011;20339;49.754;20.158;2024-02-26T03:16:46;9.40;;;5.90;;
34064;SDS011;20339;49.754;20.158;2024-02-26T03:19:20;10.40;;;6.20;;
34064;SDS011;20339;49.754;20.158;2024-02-26T03:21:54;10.90;;;6.80;;
34064;SDS011;20339;49.754;20.158;2024-02-26T03:24:25;12.50;;;7.90;;
34064;SDS011;20339;49.754;20.158;2024-02-26T03:26:56;13.00;;;8.10;;
34064;SDS011;20339;49.754;20.158;2024-02-26T03:29:30;11.00;;;7.00;;
34064;SDS011;20339;49.754;20.158;2024-02-26T03:32:04;9.60;;;5.90;;
34064;SDS011;20339;49.754;20.158;2024-02-26T03:34:35;9.30;;;6.70;;
34064;SDS011;20339;49.754;20.158;2024-02-26T03:37:09;8.80;;;6.40;;
34064;SDS011;20339;49.754;20.158;2024-02-26T03:39:40;10.70;;;7.10;;
34064;SDS011;20339;49.754;20.158;2024-02-26T03:42:14;9.30;;;6.00;;
34064;SDS011;20339;49.754;20.158;2024-02-26T03:44:50;9.30;;;5.80;;
34064;SDS011;20339;49.754;20.158;2024-02-26T03:47:24;10.00;;;7.30;;
34064;SDS011;20339;49.754;20.158;2024-02-26T03:49:59;9.40;;;6.20;;
34064;SDS011;20339;49.754;20.158;2024-02-26T03:52:33;9.50;;;5.80;;
34064;SDS011;20339;49.754;20.158;2024-02-26T03:55:04;8.20;;;5.50;;
34064;SDS011;20339;49.754;20.158;2024-02-26T03:57:41;8.10;;;5.50;;
34064;SDS011;20339;49.754;20.158;2024-02-26T04:00:16;9.90;;;5.60;;
34064;SDS011;20339;49.754;20.158;2024-02-26T04:02:50;8.70;;;5.10;;
34064;SDS011;20339;49.754;20.158;2024-02-26T04:05:27;6.90;;;4.20;;
34064;SDS011;20339;49.754;20.158;2024-02-26T04:08:01;9.00;;;5.60;;
34064;SDS011;20339;49.754;20.158;2024-02-26T04:10:35;8.10;;;5.50;;
34064;SDS011;20339;49.754;20.158;2024-02-26T04:13:11;7.80;;;5.10;;
34064;SDS011;20339;49.754;20.158;2024-02-26T04:15:48;8.00;;;4.70;;
34064;SDS011;20339;49.754;20.158;2024-02-26T04:18:20;7.90;;;5.30;;
34064;SDS011;20339;49.754;20.158;2024-02-26T04:20:53;8.40;;;5.80;;
34064;SDS011;20339;49.754;20.158;2024-02-26T04:23:26;7.80;;;5.30;;
34064;SDS011;20339;49.754;20.158;2024-02-26T04:25:57;8.70;;;4.90;;
34064;SDS011;20339;49.754;20.158;2024-02-26T04:28:33;8.70;;;4.90;;
34064;SDS011;20339;49.754;20.158;2024-02-26T04:31:06;9.40;;;5.50;;
34064;SDS011;20339;49.754;20.158;2024-02-26T04:33:38;8.50;;;5.10;;
34064;SDS011;20339;49.754;20.158;2024-02-26T04:36:13;8.40;;;5.60;;
34064;SDS011;20339;49.754;20.158;2024-02-26T04:38:48;7.90;;;5.00;;
34064;SDS011;20339;49.754;20.158;2024-02-26T04:41:19;7.90;;;4.50;;
34064;SDS011;20339;49.754;20.158;2024-02-26T04:43:51;6.50;;;3.90;;
34064;SDS011;20339;49.754;20.158;2024-02-26T04:46:24;6.90;;;4.60;;
34064;SDS011;20339;49.754;20.158;2024-02-26T04:48:59;7.80;;;5.00;;
34064;SDS011;20339;49.754;20.158;2024-02-26T04:51:33;6.60;;;4.50;;
34064;SDS011;20339;49.754;20.158;2024-02-26T04:54:07;6.40;;;4.30;;
34064;SDS011;20339;49.754;20.158;2024-02-26T04:56:38;4.80;;;3.20;;
34064;SDS011;20339;49.754;20.158;2024-02-26T04:59:11;5.80;;;3.30;;
34064;SDS011;20339;49.754;20.158;2024-02-26T05:01:42;6.80;;;4.20;;
34064;SDS011;20339;49.754;20.158;2024-02-26T05:04:15;5.80;;;3.70;;
34064;SDS011;20339;49.754;20.158;2024-02-26T05:06:47;5.30;;;3.60;;
34064;SDS011;20339;49.754;20.158;2024-02-26T05:09:23;3.70;;;2.80;;
34064;SDS011;20339;49.754;20.158;2024-02-26T05:11:56;5.50;;;3.80;;
34064;SDS011;20339;49.754;20.158;2024-02-26T05:14:29;4.40;;;3.00;;
34064;SDS011;20339;49.754;20.158;2024-02-26T05:17:05;5.40;;;4.90;;
34064;SDS011;20339;49.754;20.158;2024-02-26T05:19:36;3.60;;;2.20;;
34064;SDS011;20339;49.754;20.158;2024-02-26T05:22:11;3.60;;;2.40;;
34064;SDS011;20339;49.754;20.158;2024-02-26T05:24:44;3.90;;;2.60;;
34064;SDS011;20339;49.754;20.158;2024-02-26T05:27:16;4.40;;;3.00;;
34064;SDS011;20339;49.754;20.158;2024-02-26T05:29:47;4.00;;;2.70;;
34064;SDS011;20339;49.754;20.158;2024-02-26T05:32:19;4.80;;;2.90;;
34064;SDS011;20339;49.754;20.158;2024-02-26T05:34:53;4.10;;;3.10;;
34064;SDS011;20339;49.754;20.158;2024-02-26T05:37:24;5.40;;;3.50;;
34064;SDS011;20339;49.754;20.158;2024-02-26T05:39:58;4.40;;;3.00;;
34064;SDS011;20339;49.754;20.158;2024-02-26T05:42:32;3.50;;;2.60;;
34064;SDS011;20339;49.754;20.158;2024-02-26T05:45:07;4.40;;;2.50;;
34064;SDS011;20339;49.754;20.158;2024-02-26T05:47:39;4.80;;;3.20;;
34064;SDS011;20339;49.754;20.158;2024-02-26T05:50:11;5.50;;;3.50;;
34064;SDS011;20339;49.754;20.158;2024-02-26T05:52:44;5.50;;;3.70;;
34064;SDS011;20339;49.754;20.158;2024-02-26T05:55:15;6.00;;;3.90;;
34064;SDS011;20339;49.754;20.158;2024-02-26T05:57:47;5.20;;;3.10;;
34064;SDS011;20339;49.754;20.158;2024-02-26T06:00:19;5.90;;;3.50;;
34064;SDS011;20339;49.754;20.158;2024-02-26T06:02:55;9.70;;;6.20;;
34064;SDS011;20339;49.754;20.158;2024-02-26T06:05:31;8.70;;;5.20;;
34064;SDS011;20339;49.754;20.158;2024-02-26T06:08:05;5.70;;;3.90;;
34064;SDS011;20339;49.754;20.158;2024-02-26T06:10:40;6.60;;;3.60;;
34064;SDS011;20339;49.754;20.158;2024-02-26T06:13:12;6.00;;;3.30;;
34064;SDS011;20339;49.754;20.158;2024-02-26T06:15:49;6.50;;;3.40;;
34064;SDS011;20339;49.754;20.158;2024-02-26T06:18:20;6.00;;;3.70;;
34064;SDS011;20339;49.754;20.158;2024-02-26T06:20:55;6.30;;;3.50;;
34064;SDS011;20339;49.754;20.158;2024-02-26T06:23:27;6.00;;;3.90;;
34064;SDS011;20339;49.754;20.158;2024-02-26T06:25:58;6.00;;;4.10;;
34064;SDS011;20339;49.754;20.158;2024-02-26T06:28:30;5.00;;;3.70;;
34064;SDS011;20339;49.754;20.158;2024-02-26T06:31:04;8.80;;;5.20;;
34064;SDS011;20339;49.754;20.158;2024-02-26T06:33:36;9.40;;;6.40;;
34064;SDS011;20339;49.754;20.158;2024-02-26T06:36:07;7.00;;;4.70;;
34064;SDS011;20339;49.754;20.158;2024-02-26T06:38:41;7.70;;;5.10;;
34064;SDS011;20339;49.754;20.158;2024-02-26T06:41:12;5.50;;;4.10;;
34064;SDS011;20339;49.754;20.158;2024-02-26T06:43:46;6.30;;;4.00;;
34064;SDS011;20339;49.754;20.158;2024-02-26T06:46:18;6.60;;;4.50;;
34064;SDS011;20339;49.754;20.158;2024-02-26T06:48:56;8.00;;;5.10;;
34064;SDS011;20339;49.754;20.158;2024-02-26T06:51:28;7.30;;;4.90;;
34064;SDS011;20339;49.754;20.158;2024-02-26T06:54:09;6.40;;;4.40;;
34064;SDS011;20339;49.754;20.158;2024-02-26T06:56:41;6.90;;;4.30;;
34064;SDS011;20339;49.754;20.158;2024-02-26T06:59:12;6.80;;;4.30;;
34064;SDS011;20339;49.754;20.158;2024-02-26T07:01:45;6.30;;;4.40;;
34064;SDS011;20339;49.754;20.158;2024-02-26T07:04:19;6.20;;;4.40;;
34064;SDS011;20339;49.754;20.158;2024-02-26T07:06:50;6.60;;;4.40;;
34064;SDS011;20339;49.754;20.158;2024-02-26T07:09:21;7.10;;;4.40;;
34064;SDS011;20339;49.754;20.158;2024-02-26T07:11:55;7.10;;;4.40;;
34064;SDS011;20339;49.754;20.158;2024-02-26T07:14:27;5.60;;;4.40;;
34064;SDS011;20339;49.754;20.158;2024-02-26T07:17:00;6.20;;;4.30;;
34064;SDS011;20339;49.754;20.158;2024-02-26T07:19:39;6.70;;;4.40;;
34064;SDS011;20339;49.754;20.158;2024-02-26T07:22:13;8.30;;;4.70;;
34064;SDS011;20339;49.754;20.158;2024-02-26T07:24:46;4.50;;;3.60;;
34064;SDS011;20339;49.754;20.158;2024-02-26T07:27:20;5.90;;;3.70;;
34064;SDS011;20339;49.754;20.158;2024-02-26T07:29:56;6.20;;;4.40;;
34064;SDS011;20339;49.754;20.158;2024-02-26T07:32:29;6.30;;;4.10;;
34064;SDS011;20339;49.754;20.158;2024-02-26T07:35:00;5.30;;;4.20;;
34064;SDS011;20339;49.754;20.158;2024-02-26T07:37:34;5.60;;;4.20;;
34064;SDS011;20339;49.754;20.158;2024-02-26T07:40:07;5.90;;;4.00;;
34064;SDS011;20339;49.754;20.158;2024-02-26T07:42:41;6.40;;;4.00;;
34064;SDS011;20339;49.754;20.158;2024-02-26T07:45:15;5.00;;;3.30;;
34064;SDS011;20339;49.754;20.158;2024-02-26T07:47:51;5.00;;;3.50;;
34064;SDS011;20339;49.754;20.158;2024-02-26T07:50:29;5.20;;;3.60;;
34064;SDS011;20339;49.754;20.158;2024-02-26T07:53:00;5.30;;;3.70;;
34064;SDS011;20339;49.754;20.158;2024-02-26T07:55:35;6.70;;;4.90;;
34064;SDS011;20339;49.754;20.158;2024-02-26T07:58:06;5.60;;;4.10;;
34064;SDS011;20339;49.754;20.158;2024-02-26T08:00:37;4.20;;;3.30;;
34064;SDS011;20339;49.754;20.158;2024-02-26T08:03:14;3.50;;;2.80;;
34064;SDS011;20339;49.754;20.158;2024-02-26T08:05:50;3.50;;;2.20;;
34064;SDS011;20339;49.754;20.158;2024-02-26T08:08:23;3.30;;;2.60;;
34064;SDS011;20339;49.754;20.158;2024-02-26T08:10:58;3.60;;;2.80;;
34064;SDS011;20339;49.754;20.158;2024-02-26T08:13:32;2.60;;;2.20;;
34064;SDS011;20339;49.754;20.158;2024-02-26T08:16:06;4.50;;;3.60;;
34064;SDS011;20339;49.754;20.158;2024-02-26T08:18:37;4.10;;;2.80;;
34064;SDS011;20339;49.754;20.158;2024-02-26T08:21:09;4.50;;;3.30;;
34064;SDS011;20339;49.754;20.158;2024-02-26T08:23:43;3.80;;;2.60;;
34064;SDS011;20339;49.754;20.158;2024-02-26T08:26:14;3.10;;;2.50;;
34064;SDS011;20339;49.754;20.158;2024-02-26T08:28:50;4.00;;;2.30;;
34064;SDS011;20339;49.754;20.158;2024-02-26T08:31:23;4.30;;;2.80;;
34064;SDS011;20339;49.754;20.158;2024-02-26T08:33:56;4.20;;;2.40;;
34064;SDS011;20339;49.754;20.158;2024-02-26T08:36:33;4.40;;;2.20;;
34064;SDS011;20339;49.754;20.158;2024-02-26T08:39:07;3.20;;;2.10;;
34064;SDS011;20339;49.754;20.158;2024-02-26T08:41:38;2.90;;;2.00;;
34064;SDS011;20339;49.754;20.158;2024-02-26T08:44:11;3.90;;;1.90;;
34064;SDS011;20339;49.754;20.158;2024-02-26T08:46:45;3.80;;;1.90;;
34064;SDS011;20339;49.754;20.158;2024-02-26T08:49:20;2.50;;;1.60;;
34064;SDS011;20339;49.754;20.158;2024-02-26T08:51:54;2.40;;;1.70;;
34064;SDS011;20339;49.754;20.158;2024-02-26T08:54:28;2.10;;;1.50;;
34064;SDS011;20339;49.754;20.158;2024-02-26T08:57:00;2.20;;;1.50;;
34064;SDS011;20339;49.754;20.158;2024-02-26T08:59:32;2.10;;;1.80;;
34064;SDS011;20339;49.754;20.158;2024-02-26T09:02:11;2.50;;;1.80;;
34064;SDS011;20339;49.754;20.158;2024-02-26T09:04:43;1.90;;;1.40;;
34064;SDS011;20339;49.754;20.158;2024-02-26T09:07:17;3.00;;;1.90;;
34064;SDS011;20339;49.754;20.158;2024-02-26T09:09:50;1.70;;;1.30;;
34064;SDS011;20339;49.754;20.158;2024-02-26T09:12:24;2.10;;;1.30;;
34064;SDS011;20339;49.754;20.158;2024-02-26T09:14:56;1.70;;;1.40;;
34064;SDS011;20339;49.754;20.158;2024-02-26T09:17:29;1.80;;;1.30;;
34064;SDS011;20339;49.754;20.158;2024-02-26T09:20:04;2.80;;;1.80;;
34064;SDS011;20339;49.754;20.158;2024-02-26T09:22:41;2.50;;;1.50;;
34064;SDS011;20339;49.754;20.158;2024-02-26T09:25:16;2.30;;;2.00;;
34064;SDS011;20339;49.754;20.158;2024-02-26T09:27:47;3.60;;;2.00;;
34064;SDS011;20339;49.754;20.158;2024-02-26T09:30:21;2.30;;;1.70;;
34064;SDS011;20339;49.754;20.158;2024-02-26T09:32:58;2.60;;;1.60;;
34064;SDS011;20339;49.754;20.158;2024-02-26T09:35:29;3.20;;;2.20;;
34064;SDS011;20339;49.754;20.158;2024-02-26T09:38:02;2.10;;;1.70;;
34064;SDS011;20339;49.754;20.158;2024-02-26T09:40:38;2.40;;;1.50;;
34064;SDS011;20339;49.754;20.158;2024-02-26T09:43:10;2.90;;;1.70;;
34064;SDS011;20339;49.754;20.158;2024-02-26T09:45:46;2.30;;;1.60;;
34064;SDS011;20339;49.754;20.158;2024-02-26T09:48:20;3.80;;;1.90;;
34064;SDS011;20339;49.754;20.158;2024-02-26T09:50:55;3.80;;;1.60;;
34064;SDS011;20339;49.754;20.158;2024-02-26T09:53:34;2.20;;;1.60;;
34064;SDS011;20339;49.754;20.158;2024-02-26T09:56:10;2.20;;;1.60;;
34064;SDS011;20339;49.754;20.158;2024-02-26T09:58:44;3.70;;;1.70;;
34064;SDS011;20339;49.754;20.158;2024-02-26T10:01:23;1.90;;;1.60;;
34064;SDS011;20339;49.754;20.158;2024-02-26T10:03:58;1.80;;;1.60;;
34064;SDS011;20339;49.754;20.158;2024-02-26T10:06:32;1.80;;;1.50;;
34064;SDS011;20339;49.754;20.158;2024-02-26T10:09:08;7.60;;;2.50;;
34064;SDS011;20339;49.754;20.158;2024-02-26T10:11:40;1.70;;;1.40;;
34064;SDS011;20339;49.754;20.158;2024-02-26T10:14:14;2.80;;;2.00;;
34064;SDS011;20339;49.754;20.158;2024-02-26T10:16:49;2.10;;;1.40;;
34064;SDS011;20339;49.754;20.158;2024-02-26T10:19:28;1.90;;;1.40;;
34064;SDS011;20339;49.754;20.158;2024-02-26T10:22:00;1.80;;;1.60;;
34064;SDS011;20339;49.754;20.158;2024-02-26T10:24:32;1.40;;;1.30;;
34064;SDS011;20339;49.754;20.158;2024-02-26T10:27:04;2.20;;;1.60;;
34064;SDS011;20339;49.754;20.158;2024-02-26T10:29:37;1.90;;;1.40;;
34064;SDS011;20339;49.754;20.158;2024-02-26T10:32:11;2.00;;;1.30;;
34064;SDS011;20339;49.754;20.158;2024-02-26T10:34:47;1.40;;;1.20;;
34064;SDS011;20339;49.754;20.158;2024-02-26T10:37:20;1.40;;;1.20;;
34064;SDS011;20339;49.754;20.158;2024-02-26T10:39:54;1.80;;;1.40;;
34064;SDS011;20339;49.754;20.158;2024-02-26T10:42:26;2.90;;;1.60;;
34064;SDS011;20339;49.754;20.158;2024-02-26T10:44:59;1.80;;;1.50;;
34064;SDS011;20339;49.754;20.158;2024-02-26T10:47:31;2.20;;;1.40;;
34064;SDS011;20339;49.754;20.158;2024-02-26T10:50:05;1.70;;;1.40;;
34064;SDS011;20339;49.754;20.158;2024-02-26T10:52:37;2.60;;;1.60;;
34064;SDS011;20339;49.754;20.158;2024-02-26T10:55:15;2.10;;;1.70;;
34064;SDS011;20339;49.754;20.158;2024-02-26T10:57:53;1.90;;;1.50;;
34064;SDS011;20339;49.754;20.158;2024-02-26T11:00:28;2.70;;;1.80;;
34064;SDS011;20339;49.754;20.158;2024-02-26T11:03:00;4.20;;;2.50;;
34064;SDS011;20339;49.754;20.158;2024-02-26T11:05:34;4.50;;;2.80;;
34064;SDS011;20339;49.754;20.158;2024-02-26T11:08:09;3.60;;;2.30;;
34064;SDS011;20339;49.754;20.158;2024-02-26T11:10:41;4.60;;;2.50;;
34064;SDS011;20339;49.754;20.158;2024-02-26T11:13:17;5.10;;;3.10;;
34064;SDS011;20339;49.754;20.158;2024-02-26T11:15:54;4.30;;;2.90;;
34064;SDS011;20339;49.754;20.158;2024-02-26T11:18:28;4.40;;;2.90;;
34064;SDS011;20339;49.754;20.158;2024-02-26T11:21:05;5.10;;;2.30;;
34064;SDS011;20339;49.754;20.158;2024-02-26T11:23:39;3.90;;;2.10;;
34064;SDS011;20339;49.754;20.158;2024-02-26T11:26:11;3.40;;;2.40;;
34064;SDS011;20339;49.754;20.158;2024-02-26T11:28:46;3.60;;;2.40;;
34064;SDS011;20339;49.754;20.158;2024-02-26T11:31:21;4.60;;;2.60;;
34064;SDS011;20339;49.754;20.158;2024-02-26T11:33:57;3.40;;;2.50;;
34064;SDS011;20339;49.754;20.158;2024-02-26T11:36:32;4.10;;;2.50;;
34064;SDS011;20339;49.754;20.158;2024-02-26T11:39:05;4.50;;;2.40;;
34064;SDS011;20339;49.754;20.158;2024-02-26T11:41:38;3.40;;;2.50;;
34064;SDS011;20339;49.754;20.158;2024-02-26T11:44:10;3.10;;;2.40;;
34064;SDS011;20339;49.754;20.158;2024-02-26T11:46:43;3.10;;;2.40;;
34064;SDS011;20339;49.754;20.158;2024-02-26T11:49:32;3.40;;;2.90;;
34064;SDS011;20339;49.754;20.158;2024-02-26T11:52:07;4.30;;;2.90;;
34064;SDS011;20339;49.754;20.158;2024-02-26T11:54:44;4.30;;;3.40;;
34064;SDS011;20339;49.754;20.158;2024-02-26T11:57:26;4.80;;;3.70;;
34064;SDS011;20339;49.754;20.158;2024-02-26T12:00:16;5.10;;;3.90;;
34064;SDS011;20339;49.754;20.158;2024-02-26T12:02:51;5.10;;;3.90;;
34064;SDS011;20339;49.754;20.158;2024-02-26T12:05:32;7.00;;;5.20;;
34064;SDS011;20339;49.754;20.158;2024-02-26T12:08:10;4.50;;;3.40;;
34064;SDS011;20339;49.754;20.158;2024-02-26T12:10:45;5.50;;;4.20;;
34064;SDS011;20339;49.754;20.158;2024-02-26T12:13:29;4.00;;;3.50;;
34064;SDS011;20339;49.754;20.158;2024-02-26T12:16:01;3.60;;;3.30;;
34064;SDS011;20339;49.754;20.158;2024-02-26T12:18:35;5.80;;;4.30;;
34064;SDS011;20339;49.754;20.158;2024-02-26T12:21:12;5.40;;;4.00;;
34064;SDS011;20339;49.754;20.158;2024-02-26T12:23:44;3.30;;;3.00;;
34064;SDS011;20339;49.754;20.158;2024-02-26T12:26:16;3.50;;;3.20;;
34064;SDS011;20339;49.754;20.158;2024-02-26T12:28:53;6.00;;;4.20;;
34064;SDS011;20339;49.754;20.158;2024-02-26T12:31:24;7.60;;;4.80;;
34064;SDS011;20339;49.754;20.158;2024-02-26T12:34:01;5.80;;;4.70;;
34064;SDS011;20339;49.754;20.158;2024-02-26T12:36:37;4.50;;;3.80;;
34064;SDS011;20339;49.754;20.158;2024-02-26T12:39:11;3.20;;;2.90;;
34064;SDS011;20339;49.754;20.158;2024-02-26T12:41:48;3.00;;;2.70;;
34064;SDS011;20339;49.754;20.158;2024-02-26T12:44:27;3.80;;;3.00;;
34064;SDS011;20339;49.754;20.158;2024-02-26T12:47:04;3.90;;;3.20;;
34064;SDS011;20339;49.754;20.158;2024-02-26T12:49:37;3.50;;;2.80;;
34064;SDS011;20339;49.754;20.158;2024-02-26T12:52:12;5.10;;;3.80;;
34064;SDS011;20339;49.754;20.158;2024-02-26T12:54:44;3.50;;;3.20;;
34064;SDS011;20339;49.754;20.158;2024-02-26T12:57:16;4.10;;;3.20;;
34064;SDS011;20339;49.754;20.158;2024-02-26T12:59:50;5.80;;;4.20;;
34064;SDS011;20339;49.754;20.158;2024-02-26T13:02:25;5.00;;;3.90;;
34064;SDS011;20339;49.754;20.158;2024-02-26T13:05:01;5.10;;;4.10;;
34064;SDS011;20339;49.754;20.158;2024-02-26T13:07:36;8.50;;;5.20;;
34064;SDS011;20339;49.754;20.158;2024-02-26T13:10:24;5.20;;;3.70;;
34064;SDS011;20339;49.754;20.158;2024-02-26T13:12:56;10.00;;;5.60;;
34064;SDS011;20339;49.754;20.158;2024-02-26T13:15:33;6.00;;;4.80;;
34064;SDS011;20339;49.754;20.158;2024-02-26T13:18:10;6.40;;;4.80;;
34064;SDS011;20339;49.754;20.158;2024-02-26T13:20:47;8.60;;;5.30;;
34064;SDS011;20339;49.754;20.158;2024-02-26T13:23:20;6.30;;;5.20;;
34064;SDS011;20339;49.754;20.158;2024-02-26T13:25:55;7.30;;;5.40;;
34064;SDS011;20339;49.754;20.158;2024-02-26T13:28:33;6.90;;;5.70;;
34064;SDS011;20339;49.754;20.158;2024-02-26T13:31:09;8.70;;;7.20;;
34064;SDS011;20339;49.754;20.158;2024-02-26T13:33:44;9.20;;;7.00;;
34064;SDS011;20339;49.754;20.158;2024-02-26T13:36:18;8.20;;;7.00;;
34064;SDS011;20339;49.754;20.158;2024-02-26T13:38:52;10.20;;;8.30;;
34064;SDS011;20339;49.754;20.158;2024-02-26T13:41:31;16.00;;;11.40;;
34064;SDS011;20339;49.754;20.158;2024-02-26T13:44:04;18.60;;;12.90;;
34064;SDS011;20339;49.754;20.158;2024-02-26T13:46:35;10.80;;;8.90;;
34064;SDS011;20339;49.754;20.158;2024-02-26T13:49:09;9.70;;;8.00;;
34064;SDS011;20339;49.754;20.158;2024-02-26T13:51:41;11.00;;;8.40;;
34064;SDS011;20339;49.754;20.158;2024-02-26T13:54:12;11.20;;;9.20;;
34064;SDS011;20339;49.754;20.158;2024-02-26T13:56:46;12.30;;;9.50;;
34064;SDS011;20339;49.754;20.158;2024-02-26T13:59:18;10.30;;;7.50;;
34064;SDS011;20339;49.754;20.158;2024-02-26T14:01:52;9.60;;;8.30;;
34064;SDS011;20339;49.754;20.158;2024-02-26T14:04:28;11.70;;;8.80;;
34064;SDS011;20339;49.754;20.158;2024-02-26T14:07:04;11.80;;;9.50;;
34064;SDS011;20339;49.754;20.158;2024-02-26T14:09:42;17.30;;;12.20;;
34064;SDS011;20339;49.754;20.158;2024-02-26T14:12:17;10.20;;;8.80;;
34064;SDS011;20339;49.754;20.158;2024-02-26T14:14:50;8.90;;;7.80;;
34064;SDS011;20339;49.754;20.158;2024-02-26T14:17:23;9.00;;;8.10;;
34064;SDS011;20339;49.754;20.158;2024-02-26T14:19:59;10.40;;;7.90;;
34064;SDS011;20339;49.754;20.158;2024-02-26T14:22:33;9.30;;;7.90;;
34064;SDS011;20339;49.754;20.158;2024-02-26T14:25:05;10.10;;;8.20;;
34064;SDS011;20339;49.754;20.158;2024-02-26T14:27:46;10.70;;;8.70;;
34064;SDS011;20339;49.754;20.158;2024-02-26T14:30:18;10.90;;;8.40;;
34064;SDS011;20339;49.754;20.158;2024-02-26T14:32:52;10.70;;;8.50;;
34064;SDS011;20339;49.754;20.158;2024-02-26T14:35:26;10.00;;;8.60;;
34064;SDS011;20339;49.754;20.158;2024-02-26T14:37:59;10.30;;;8.80;;
34064;SDS011;20339;49.754;20.158;2024-02-26T14:40:34;8.90;;;7.90;;
34064;SDS011;20339;49.754;20.158;2024-02-26T14:43:06;9.20;;;8.20;;
34064;SDS011;20339;49.754;20.158;2024-02-26T14:45:41;12.10;;;8.70;;
34064;SDS011;20339;49.754;20.158;2024-02-26T14:48:12;8.90;;;7.90;;
34064;SDS011;20339;49.754;20.158;2024-02-26T14:50:46;10.40;;;7.50;;
34064;SDS011;20339;49.754;20.158;2024-02-26T14:53:18;9.90;;;8.20;;
34064;SDS011;20339;49.754;20.158;2024-02-26T14:55:50;9.10;;;8.10;;
34064;SDS011;20339;49.754;20.158;2024-02-26T14:58:24;11.10;;;9.00;;
34064;SDS011;20339;49.754;20.158;2024-02-26T15:00:55;11.40;;;8.90;;
34064;SDS011;20339;49.754;20.158;2024-02-26T15:03:29;9.80;;;8.80;;
34064;SDS011;20339;49.754;20.158;2024-02-26T15:06:02;11.00;;;8.90;;
34064;SDS011;20339;49.754;20.158;2024-02-26T15:08:34;12.00;;;9.60;;
34064;SDS011;20339;49.754;20.158;2024-02-26T15:11:07;10.30;;;8.90;;
34064;SDS011;20339;49.754;20.158;2024-02-26T15:13:42;10.20;;;9.20;;
34064;SDS011;20339;49.754;20.158;2024-02-26T15:16:18;100.50;;;19.50;;